.
WxDataArchive / Data Records for 2014-01-15
2014-01-14 January 2014 2014-01-16

Data Records for Wednesday, 15 January 2014

Time	Temp	Chill	HIndex	Humid	Dewpt	 Wind 	HiWind	WindDir	Rain 	Barom 
-----	----	-----	------	-----	-----	------	------	-------	-----	----- 
00:00	27.9	27.9	27.9	65	17.7	3	8	248	0.00	29.837 
00:05	27.8	27.8	27.8	66	17.9	3	8	248	0.00	29.837 
00:10	27.6	23.0	27.6	66	17.8	4	10	248	0.00	29.837 
00:15	27.6	27.6	27.6	67	18.1	2	6	248	0.00	29.835 
00:20	27.5	27.5	27.5	67	18.0	2	4	248	0.00	29.835 
00:25	27.5	27.5	27.5	67	18.0	3	6	248	0.00	29.835 
00:30	27.3	27.3	27.3	68	18.2	3	9	270	0.00	29.835 
00:35	27.3	27.3	27.3	68	18.2	3	9	248	0.00	29.835 
00:40	27.2	27.2	27.2	69	18.4	3	9	248	0.00	29.835 
00:45	27.2	22.5	27.2	68	18.1	4	12	248	0.00	29.835 
00:50	27.0	27.0	27.0	68	17.9	3	7	248	0.00	29.835 
00:55	27.0	27.0	27.0	67	17.5	3	6	270	0.00	29.835 
01:00	26.9	26.9	26.9	68	17.8	3	7	248	0.00	29.835 
01:05	26.7	26.7	26.7	69	17.9	3	7	248	0.00	29.835 
01:10	26.6	26.6	26.6	71	18.5	3	5	270	0.00	29.835 
01:15	26.4	26.4	26.4	73	18.9	3	6	248	0.00	29.835 
01:20	26.3	26.3	26.3	75	19.5	2	5	248	0.00	29.835 
01:25	26.1	26.1	26.1	76	19.6	2	5	270	0.00	29.835 
01:30	26.0	26.0	26.0	76	19.5	2	5	270	0.00	29.836 
01:35	25.8	25.8	25.8	76	19.3	2	5	292	0.00	29.836 
01:40	25.7	25.7	25.7	75	18.9	2	5	270	0.00	29.836 
01:45	25.7	25.7	25.7	76	19.2	2	4	270	0.00	29.835 
01:50	25.6	25.6	25.6	76	19.1	1	4	270	0.00	29.835 
01:55	25.4	25.4	25.4	73	18.0	2	5	270	0.00	29.835 
02:00	25.3	25.3	25.3	70	16.9	2	5	270	0.00	29.842 
02:05	25.3	20.3	25.3	67	15.9	4	9	270	0.00	29.842 
02:10	25.3	25.3	25.3	65	15.2	3	7	270	0.00	29.842 
02:15	25.3	25.3	25.3	64	14.9	3	7	248	0.00	29.845 
02:20	25.3	20.3	25.3	64	14.9	4	7	248	0.00	29.845 
02:25	25.3	20.3	25.3	63	14.5	4	10	248	0.00	29.845 
02:30	25.1	25.1	25.1	63	14.3	3	8	248	0.00	29.852 
02:35	24.8	19.8	24.8	63	14.0	4	9	270	0.00	29.852 
02:40	24.7	24.7	24.7	64	14.3	3	7	270	0.00	29.852 
02:45	24.5	24.5	24.5	64	14.1	3	7	270	0.00	29.863 
02:50	24.5	24.5	24.5	65	14.4	2	6	248	0.00	29.863 
02:55	24.4	24.4	24.4	65	14.3	3	9	270	0.00	29.863 
03:00	24.4	24.4	24.4	65	14.3	2	7	248	0.00	29.866 
03:05	24.4	24.4	24.4	65	14.3	3	6	248	0.00	29.866 
03:10	24.4	24.4	24.4	66	14.7	2	6	248	0.00	29.866 
03:15	24.2	19.1	24.2	65	14.2	4	10	270	0.00	29.872 
03:20	24.2	19.1	24.2	64	13.8	4	10	270	0.00	29.872 
03:25	24.2	24.2	24.2	65	14.2	3	7	270	0.00	29.872 
03:30	24.2	24.2	24.2	66	14.5	1	5	270	0.00	29.883 
03:35	24.1	24.1	24.1	67	14.8	2	5	270	0.00	29.883 
03:40	24.1	24.1	24.1	67	14.8	3	9	270	0.00	29.883 
03:45	24.1	24.1	24.1	68	15.1	2	7	270	0.00	29.887 
03:50	24.1	24.1	24.1	67	14.8	3	10	270	0.00	29.887 
03:55	24.1	24.1	24.1	66	14.4	2	6	270	0.00	29.887 
04:00	24.1	24.1	24.1	66	14.4	2	5	270	0.00	29.896 
04:05	24.1	24.1	24.1	65	14.1	2	5	270	0.00	29.896 
04:10	23.9	23.9	23.9	66	14.2	2	5	292	0.00	29.896 
04:15	23.8	18.6	23.8	65	13.8	4	8	270	0.00	29.898 
04:20	23.6	23.6	23.6	66	13.9	2	6	248	0.00	29.898 
04:25	23.5	23.5	23.5	66	13.8	1	4	248	0.00	29.898 
04:30	23.3	23.3	23.3	66	13.6	1	4	270	0.00	29.900 
04:35	23.3	23.3	23.3	66	13.6	2	6	248	0.00	29.900 
04:40	23.3	23.3	23.3	66	13.6	2	5	248	0.00	29.900 
04:45	23.5	23.5	23.5	66	13.8	2	7	270	0.00	29.904 
04:50	23.5	23.5	23.5	66	13.8	2	5	248	0.00	29.904 
04:55	23.5	23.5	23.5	67	14.2	2	5	248	0.00	29.904 
05:00	23.5	23.5	23.5	67	14.2	2	4	248	0.00	29.906 
05:05	23.5	23.5	23.5	68	14.5	1	6	248	0.00	29.906 
05:10	23.5	23.5	23.5	69	14.9	2	5	248	0.00	29.906 
05:15	23.5	23.5	23.5	69	14.9	3	6	248	0.00	29.915 
05:20	23.3	23.3	23.3	70	15.0	3	7	248	0.00	29.915 
05:25	23.3	23.3	23.3	71	15.3	1	4	248	0.00	29.915 
05:30	23.3	23.3	23.3	72	15.6	1	4	248	0.00	29.920 
05:35	23.3	23.3	23.3	72	15.6	1	3	270	0.00	29.920 
05:40	23.3	23.3	23.3	72	15.6	2	10	248	0.00	29.920 
05:45	23.2	23.2	23.2	72	15.5	2	6	248	0.00	29.922 
05:50	23.2	23.2	23.2	73	15.9	2	5	270	0.00	29.922 
05:55	23.0	23.0	23.0	73	15.7	2	9	248	0.00	29.922 
06:00	23.0	23.0	23.0	73	15.7	2	7	248	0.00	29.929 
06:05	22.9	22.9	22.9	73	15.6	2	7	270	0.00	29.929 
06:10	22.9	22.9	22.9	73	15.6	2	5	248	0.00	29.929 
06:15	22.7	22.7	22.7	74	15.7	1	3	248	0.00	29.935 
06:20	22.7	22.7	22.7	74	15.7	2	5	248	0.00	29.935 
06:25	22.7	22.7	22.7	74	15.7	2	5	248	0.00	29.935 
06:30	22.5	22.5	22.5	75	15.8	1	3	248	0.00	29.938 
06:35	22.5	22.5	22.5	75	15.8	1	4	248	0.00	29.938 
06:40	22.4	22.4	22.4	75	15.7	0	2	248	0.00	29.938 
06:45	22.4	22.4	22.4	76	16.0	1	4	248	0.00	29.939 
06:50	22.2	22.2	22.2	76	15.8	1	4	248	0.00	29.939 
06:55	22.2	22.2	22.2	76	15.8	1	4	248	0.00	29.939 
07:00	22.2	22.2	22.2	76	15.8	2	4	248	0.00	29.951 
07:05	22.2	22.2	22.2	75	15.5	2	4	248	0.00	29.951 
07:10	22.4	22.4	22.4	74	15.4	1	6	270	0.00	29.951 
07:15	22.4	22.4	22.4	74	15.4	2	5	248	0.00	29.956 
07:20	22.5	22.5	22.5	74	15.5	2	5	248	0.00	29.956 
07:25	22.5	22.5	22.5	74	15.5	2	7	270	0.00	29.956 
07:30	22.5	22.5	22.5	75	15.8	2	5	248	0.00	29.966 
07:35	22.4	22.4	22.4	75	15.7	1	5	270	0.00	29.966 
07:40	22.4	22.4	22.4	76	16.0	1	4	270	0.00	29.966 
07:45	22.4	22.4	22.4	76	16.0	1	4	270	0.00	29.971 
07:50	22.2	22.2	22.2	77	16.1	1	5	270	0.00	29.971 
07:55	22.2	22.2	22.2	77	16.1	1	4	248	0.00	29.971 
08:00	22.1	22.1	22.1	78	16.3	2	5	248	0.00	29.981 
08:05	21.9	21.9	21.9	77	15.8	2	4	248	0.00	29.981 
08:10	21.9	21.9	21.9	77	15.8	1	4	248	0.00	29.981 
08:15	21.9	21.9	21.9	78	16.1	2	4	248	0.00	29.990 
08:20	21.9	21.9	21.9	77	15.8	2	4	248	0.00	29.990 
08:25	21.9	21.9	21.9	77	15.8	1	4	248	0.00	29.990 
08:30	21.8	21.8	21.8	77	15.7	1	4	248	0.00	30.000 
08:35	21.8	21.8	21.8	77	15.7	2	5	248	0.00	30.000 
08:40	21.8	21.8	21.8	77	15.7	2	5	248	0.00	30.000 
08:45	21.8	21.8	21.8	77	15.7	2	6	248	0.00	30.006 
08:50	21.8	21.8	21.8	77	15.7	2	7	248	0.00	30.006 
08:55	21.8	21.8	21.8	77	15.7	2	4	270	0.00	30.006 
09:00	21.8	21.8	21.8	77	15.7	1	4	270	0.00	30.016 
09:05	21.9	21.9	21.9	77	15.8	3	6	248	0.00	30.016 
09:10	21.9	21.9	21.9	76	15.5	1	4	270	0.00	30.016 
09:15	22.1	22.1	22.1	77	16.0	1	4	270	0.00	30.022 
09:20	22.1	22.1	22.1	76	15.7	1	3	270	0.00	30.022 
09:25	22.2	22.2	22.2	76	15.8	1	4	270	0.00	30.022 
09:30	22.2	22.2	22.2	76	15.8	2	5	270	0.00	30.031 
09:35	22.4	22.4	22.4	76	16.0	1	5	270	0.00	30.031 
09:40	22.4	22.4	22.4	75	15.7	2	6	248	0.00	30.031 
09:45	22.7	22.7	22.7	75	16.0	1	4	248	0.00	30.033 
09:50	22.9	22.9	22.9	75	16.2	1	5	248	0.00	30.033 
09:55	23.0	23.0	23.0	74	16.0	1	3	248	0.00	30.033 
10:00	23.0	23.0	23.0	73	15.7	1	4	248	0.00	30.034 
10:05	23.2	23.2	23.2	73	15.9	2	5	248	0.00	30.034 
10:10	23.2	23.2	23.2	73	15.9	2	4	248	0.00	30.034 
10:15	23.2	23.2	23.2	73	15.9	2	3	248	0.00	30.038 
10:20	23.2	23.2	23.2	72	15.5	2	4	248	0.00	30.038 
10:25	23.3	23.3	23.3	73	15.9	1	5	248	0.00	30.038 
10:30	23.2	23.2	23.2	73	15.9	2	6	248	0.00	30.044 
10:35	23.2	23.2	23.2	74	16.2	1	3	248	0.00	30.044 
10:40	23.2	23.2	23.2	74	16.2	2	7	248	0.00	30.044 
10:45	23.2	23.2	23.2	73	15.9	2	4	248	0.00	30.047 
10:50	23.2	23.2	23.2	73	15.9	2	4	248	0.00	30.047 
10:55	23.0	23.0	23.0	73	15.7	2	4	248	0.00	30.047 
11:00	23.2	23.2	23.2	72	15.5	2	5	248	0.00	30.050 
11:05	23.2	23.2	23.2	72	15.5	2	5	248	0.00	30.050 
11:10	23.0	23.0	23.0	72	15.3	2	5	248	0.00	30.050 
11:15	23.3	23.3	23.3	72	15.6	2	4	248	0.00	30.055 
11:20	23.5	23.5	23.5	71	15.5	1	4	248	0.00	30.055 
11:25	23.6	23.6	23.6	71	15.6	2	7	248	0.00	30.055 
11:30	23.8	23.8	23.8	70	15.5	2	6	248	0.00	30.053 
11:35	23.8	23.8	23.8	69	15.1	2	4	248	0.00	30.053 
11:40	23.8	23.8	23.8	69	15.1	2	5	248	0.00	30.053 
11:45	23.8	23.8	23.8	69	15.1	2	4	248	0.00	30.051 
11:50	24.1	24.1	24.1	69	15.4	2	6	270	0.00	30.051 
11:55	24.2	24.2	24.2	69	15.5	2	6	248	0.00	30.051 
12:00	24.5	24.5	24.5	69	15.8	1	4	270	0.00	30.046 
12:05	24.7	24.7	24.7	68	15.7	1	3	248	0.00	30.046 
12:10	24.7	24.7	24.7	68	15.7	2	5	248	0.00	30.046 
12:15	24.7	24.7	24.7	69	16.0	1	3	248	0.00	30.040 
12:20	24.8	24.8	24.8	67	15.4	2	4	248	0.00	30.040 
12:25	24.8	24.8	24.8	67	15.4	2	4	248	0.00	30.040 
12:30	24.7	24.7	24.7	66	15.0	2	4	248	0.00	30.036 
12:35	24.7	24.7	24.7	66	15.0	1	4	248	0.00	30.036 
12:40	24.8	24.8	24.8	66	15.1	1	4	248	0.00	30.036 
12:45	25.1	25.1	25.1	67	15.7	1	4	248	0.00	30.028 
12:50	25.4	25.4	25.4	65	15.3	2	6	248	0.00	30.028 
12:55	25.4	25.4	25.4	65	15.3	2	5	248	0.00	30.028 
13:00	25.3	25.3	25.3	65	15.2	2	5	248	0.00	30.026 
13:05	25.4	25.4	25.4	64	14.9	2	5	248	0.00	30.026 
13:10	25.1	25.1	25.1	63	14.3	3	5	248	0.00	30.026 
13:15	25.0	25.0	25.0	64	14.6	2	4	270	0.00	30.022 
13:20	25.0	25.0	25.0	65	14.9	1	3	270	0.00	30.022 
13:25	25.1	25.1	25.1	65	15.0	2	6	270	0.00	30.022 
13:30	25.3	25.3	25.3	62	14.1	2	5	248	0.00	30.021 
13:35	25.3	25.3	25.3	62	14.1	2	5	270	0.00	30.021 
13:40	25.3	25.3	25.3	62	14.1	2	4	270	0.00	30.021 
13:45	25.3	25.3	25.3	62	14.1	3	5	270	0.00	30.017 
13:50	25.4	25.4	25.4	63	14.6	2	4	270	0.00	30.017 
13:55	25.8	25.8	25.8	62	14.6	2	5	248	0.00	30.017 
14:00	26.1	26.1	26.1	61	14.5	2	4	248	0.00	30.018 
14:05	26.3	26.3	26.3	59	13.9	2	5	248	0.00	30.018 
14:10	26.3	26.3	26.3	59	13.9	2	4	248	0.00	30.018 
14:15	26.3	26.3	26.3	58	13.6	2	5	292	0.00	30.018 
14:20	26.1	26.1	26.1	59	13.8	2	5	270	0.00	30.018 
14:25	26.3	26.3	26.3	58	13.6	1	5	248	0.00	30.018 
14:30	26.3	26.3	26.3	57	13.2	2	6	248	0.00	30.019 
14:35	26.3	26.3	26.3	58	13.6	2	4	248	0.00	30.019 
14:40	26.4	26.4	26.4	57	13.3	2	6	248	0.00	30.019 
14:45	26.4	26.4	26.4	57	13.3	2	5	248	0.00	30.021 
14:50	26.4	26.4	26.4	57	13.3	2	5	248	0.00	30.021 
14:55	26.3	26.3	26.3	58	13.6	2	5	248	0.00	30.021 
15:00	26.4	26.4	26.4	58	13.7	2	4	248	0.00	30.024 
15:05	26.4	26.4	26.4	59	14.0	0	3	248	0.00	30.024 
15:10	26.4	26.4	26.4	58	13.7	1	5	248	0.00	30.024 
15:15	25.8	25.8	25.8	58	13.1	1	3	248	0.00	30.025 
15:20	25.4	25.4	25.4	58	12.7	2	4	248	0.00	30.025 
15:25	25.4	25.4	25.4	59	13.1	1	4	248	0.00	30.025 
15:30	25.4	25.4	25.4	59	13.1	1	4	248	0.00	30.036 
15:35	25.4	25.4	25.4	59	13.1	1	4	248	0.00	30.036 
15:40	25.3	25.3	25.3	60	13.4	1	3	248	0.00	30.036 
15:45	25.1	25.1	25.1	60	13.2	2	6	248	0.00	30.039 
15:50	25.0	25.0	25.0	61	13.5	1	5	248	0.00	30.039 
15:55	24.8	24.8	24.8	62	13.7	2	4	248	0.00	30.039 
16:00	24.7	24.7	24.7	62	13.6	2	4	248	0.00	30.039 
16:05	24.5	24.5	24.5	63	13.7	1	3	248	0.00	30.039 
16:10	24.5	24.5	24.5	63	13.7	1	3	248	0.00	30.039 
16:15	24.4	24.4	24.4	63	13.6	1	3	248	0.00	30.041 
16:20	24.4	24.4	24.4	63	13.6	1	3	248	0.00	30.041 
16:25	24.2	24.2	24.2	63	13.4	0	3	248	0.00	30.041 
16:30	24.2	24.2	24.2	63	13.4	2	5	248	0.00	30.046 
16:35	24.1	24.1	24.1	63	13.4	0	3	248	0.00	30.046 
16:40	24.1	24.1	24.1	63	13.4	1	3	248	0.00	30.046 
16:45	24.1	24.1	24.1	63	13.4	1	3	248	0.00	30.051 
16:50	23.9	23.9	23.9	63	13.2	2	5	248	0.00	30.051 
16:55	23.8	23.8	23.8	64	13.4	2	4	270	0.00	30.051 
17:00	23.8	23.8	23.8	65	13.8	1	4	270	0.00	30.063 
17:05	23.8	23.8	23.8	65	13.8	1	5	248	0.00	30.063 
17:10	23.6	23.6	23.6	66	13.9	1	5	248	0.00	30.063 
17:15	23.5	23.5	23.5	66	13.8	2	4	248	0.00	30.071 
17:20	23.3	23.3	23.3	66	13.6	2	4	270	0.00	30.071 
17:25	23.2	23.2	23.2	68	14.2	1	3	248	0.00	30.071 
17:30	23.2	23.2	23.2	67	13.9	1	4	248	0.00	30.069 
17:35	23.0	23.0	23.0	68	14.0	1	3	248	0.00	30.069 
17:40	22.9	22.9	22.9	67	13.6	1	3	248	0.00	30.069 
17:45	22.9	22.9	22.9	67	13.6	1	2	248	0.00	30.060 
17:50	22.9	22.9	22.9	67	13.6	0	2	248	0.00	30.060 
17:55	22.7	22.7	22.7	67	13.4	0	2	248	0.00	30.060 
18:00	22.7	22.7	22.7	67	13.4	0	3	248	0.00	30.061 
18:05	22.7	22.7	22.7	67	13.4	0	1	248	0.00	30.061 
18:10	22.5	22.5	22.5	66	12.9	1	4	248	0.00	30.061 
18:15	22.4	22.4	22.4	66	12.8	1	2	248	0.00	30.060 
18:20	22.2	22.2	22.2	67	12.9	1	3	248	0.00	30.060 
18:25	22.2	22.2	22.2	65	12.3	1	3	248	0.00	30.060 
18:30	22.1	22.1	22.1	65	12.2	0	3	248	0.00	30.061 
18:35	22.1	22.1	22.1	65	12.2	0	2	248	0.00	30.061 
18:40	22.1	22.1	22.1	66	12.5	0	1	248	0.00	30.061 
18:45	22.1	22.1	22.1	66	12.5	0	3	248	0.00	30.060 
18:50	22.1	22.1	22.1	65	12.2	0	2	248	0.00	30.060 
18:55	21.9	21.9	21.9	65	12.0	1	3	248	0.00	30.060 
19:00	21.9	21.9	21.9	64	11.6	1	3	248	0.00	30.060 
19:05	21.8	21.8	21.8	62	10.8	1	2	248	0.00	30.060 
19:10	21.8	21.8	21.8	63	11.2	0	1	248	0.00	30.060 
19:15	21.9	21.9	21.9	66	12.3	0	4	248	0.00	30.062 
19:20	21.8	21.8	21.8	67	12.6	1	3	248	0.00	30.062 
19:25	21.6	21.6	21.6	68	12.7	0	2	248	0.00	30.062 
19:30	21.6	21.6	21.6	68	12.7	0	2	248	0.00	30.067 
19:35	21.4	21.4	21.4	66	11.8	1	3	248	0.00	30.067 
19:40	21.3	21.3	21.3	65	11.4	1	3	248	0.00	30.067 
19:45	21.3	21.3	21.3	65	11.4	1	3	248	0.00	30.072 
19:50	21.3	21.3	21.3	65	11.4	0	3	248	0.00	30.072 
19:55	21.3	21.3	21.3	65	11.4	1	5	248	0.00	30.072 
20:00	21.3	21.3	21.3	65	11.4	1	3	248	0.00	30.076 
20:05	21.1	21.1	21.1	65	11.2	1	3	248	0.00	30.076 
20:10	21.3	21.3	21.3	65	11.4	0	3	248	0.00	30.076 
20:15	21.3	21.3	21.3	66	11.7	0	1	248	0.00	30.077 
20:20	21.3	21.3	21.3	66	11.7	1	3	248	0.00	30.077 
20:25	21.3	21.3	21.3	68	12.4	0	2	248	0.00	30.077 
20:30	21.3	21.3	21.3	69	12.7	0	1	248	0.00	30.071 
20:35	21.3	21.3	21.3	70	13.1	0	1	248	0.00	30.071 
20:40	21.1	21.1	21.1	71	13.2	0	1	248	0.00	30.071 
20:45	21.1	21.1	21.1	71	13.2	1	3	248	0.00	30.068 
20:50	21.0	21.0	21.0	71	13.1	0	2	248	0.00	30.068 
20:55	21.0	21.0	21.0	70	12.8	0	2	248	0.00	30.068 
21:00	21.0	21.0	21.0	70	12.8	1	5	248	0.00	30.067 
21:05	21.0	21.0	21.0	70	12.8	1	6	248	0.00	30.067 
21:10	21.0	21.0	21.0	70	12.8	1	3	248	0.00	30.067 
21:15	21.0	21.0	21.0	71	13.1	0	2	248	0.00	30.064 
21:20	21.0	21.0	21.0	72	13.4	1	4	248	0.00	30.064 
21:25	20.8	20.8	20.8	73	13.5	0	3	248	0.00	30.064 
21:30	20.8	20.8	20.8	73	13.5	1	3	248	0.00	30.061 
21:35	20.8	20.8	20.8	73	13.5	0	3	248	0.00	30.061 
21:40	20.8	20.8	20.8	72	13.2	0	1	248	0.00	30.061 
21:45	20.8	20.8	20.8	73	13.5	0	2	248	0.00	30.058 
21:50	20.8	20.8	20.8	73	13.5	0	2	248	0.00	30.058 
21:55	20.6	20.6	20.6	71	12.7	1	5	248	0.00	30.058 
22:00	20.6	20.6	20.6	70	12.4	1	4	248	0.00	30.048 
22:05	20.6	20.6	20.6	69	12.1	1	3	248	0.00	30.048 
22:10	20.6	20.6	20.6	69	12.1	0	2	248	0.00	30.048 
22:15	20.6	20.6	20.6	69	12.1	0	2	248	0.00	30.046 
22:20	20.6	20.6	20.6	69	12.1	0	2	248	0.00	30.046 
22:25	20.6	20.6	20.6	68	11.7	1	3	248	0.00	30.046 
22:30	20.6	20.6	20.6	68	11.7	1	5	248	0.00	30.044 
22:35	20.5	20.5	20.5	68	11.6	1	5	248	0.00	30.044 
22:40	20.3	20.3	20.3	67	11.1	1	5	248	0.00	30.044 
22:45	20.3	20.3	20.3	67	11.1	1	6	248	0.00	30.040 
22:50	20.2	20.2	20.2	67	11.0	1	4	248	0.00	30.040 
22:55	20.2	20.2	20.2	67	11.0	1	4	248	0.00	30.040 
23:00	20.0	20.0	20.0	66	10.5	1	4	248	0.00	30.029 
23:05	20.0	20.0	20.0	66	10.5	1	3	248	0.00	30.029 
23:10	19.9	19.9	19.9	65	10.1	1	6	248	0.00	30.029 
23:15	19.9	19.9	19.9	65	10.1	0	2	270	0.00	30.026 
23:20	19.7	19.7	19.7	65	9.9	1	3	270	0.00	30.026 
23:25	19.7	19.7	19.7	66	10.2	1	5	270	0.00	30.026 
23:30	19.7	19.7	19.7	66	10.2	1	7	270	0.00	30.026 
23:35	19.5	19.5	19.5	66	10.0	1	3	248	0.00	30.026 
23:40	19.5	19.5	19.5	66	10.0	1	4	248	0.00	30.026 
23:45	19.5	19.5	19.5	66	10.0	1	3	248	0.00	30.022 
23:50	19.4	19.4	19.4	66	9.9	0	3	248	0.00	30.022 
23:55	19.4	19.4	19.4	67	10.3	1	4	248	0.00	30.022 

CoCoRaHS
IN-AL-39
A2 Web Hosting
Creative Commons License
GoDaddy
search engine by freefind advanced

loaded 2018-11-13 02:05:57 • last modified 2010-11-18 10:43:29
Privacy PolicyDisclaimer
• wx.awcolley.com is powered by PmWiki v.2002016 •
• all content (unless otherwise noted) © 2018 A W Colley